Terminal Aerodrome Forecast
Issued by NWS Flagstaff, AZ

Home | Current Version | Previous Version | Text Only | Print | Product List | Glossary On
Versions: 1 2 3 4 5 6 7 8 9 10 11 12 13 14 15 16 17 18 19
728
FTUS45 KFGZ 221728
TAFINW
TAF
KINW 221728Z 2218/2318 VRB05KT P6SM SCT250
     FM222200 21011KT P6SM SCT120 SCT250
     FM230600 22006KT P6SM BKN250=

USA.gov is the U.S. government's official web portal to all federal, state and local government web resources and services.